Hlavní strana
METAR-TAF:

METAR-TAF

Letiště :

Gamvik, Norsko

zeměpisná šířka: 71-02N, zeměpisná délka: 027-50E, výška: 1 m

Aktuální stav počasí

Zpráva byla vytvořena před 1 hodinou a 6 minutami, v 12:50 UTC
Východní vítr 11 kt
Teplota -1°C
Vlhkost vzduchu 59%
Tlak 1009 hPa
Viditelnost 10 km a více
Oblačno až skoro zataženo ve výšce 3500 ft

METAR: ENMH 181250Z 10011KT 9999 BKN035 M01/M08 Q1009

Čas: 14:56 (13:56 UTC)


TAF: chybějící

Stav a předpovědi počasí z více než 4 000 letišť (zprávy METAR a TAF).

Červené a žluté tečky na mapě představují dostupné meteorologické stanice.

Když kurzor umístíte na tečku, zobrazí se název stanice.

Pak kliknutím zobrazíte stav a předpověď počasí.

Chcete-li změnit mapu, kliknutím na zelené tlačítko se znaménkem +mapu přiblížíte, kliknutím na zelené tlačítko se znaménkem – mapu oddálíte a kliknutím na zelené šipky přejdete na sousední mapy.


METAR-TAF: